Time;durP1;ratioP1;P1;durP2;ratioP2;P2;SDS_P1;SDS_P2;PMS_P1;PMS_P2;Temp;Humidity;BMP_temperature;BMP_pressure;BME280_temperature;BME280_humidity;BME280_pressure;Samples;Min_cycle;Max_cycle;Signal;HPM_P1;HPM_P2
2022/12/16 00:01:24;;;;;;;;;;;;;;;17.67;68.85;100803.00;7404601;19;1643;-64
2022/12/16 00:03:53;;;;;;;;;;;;;;;17.49;69.77;100834.75;7404284;19;1407;-64
2022/12/16 00:06:23;;;;;;;;;;;;;;;17.33;69.98;100812.91;7404370;19;1723;-64
2022/12/16 00:08:54;;;;;;;;;;;;;;;17.21;70.23;100800.50;7404376;19;1434;-64
2022/12/16 00:11:22;;;;;;;;;;;;;;;17.14;70.50;100818.03;7403418;19;1640;-64
2022/12/16 00:13:50;;;;;;;;;;;;;;;16.95;70.77;100808.81;7402884;19;1648;-64
2022/12/16 00:16:19;;;;;;;;;;;;;;;16.83;71.14;100817.75;7401991;19;1861;-64
2022/12/16 00:18:48;;;;;;;;;;;;;;;16.82;70.93;100814.25;7403218;19;919;-64
2022/12/16 00:21:17;;;;;;;;;;;;;;;16.75;71.14;100846.84;7403512;19;1664;-64
2022/12/16 00:23:46;;;;;;;;;;;;;;;16.72;71.11;100818.56;7403230;19;1542;-64
2022/12/16 00:26:17;;;;;;;;;;;;;;;16.70;71.16;100808.00;7400515;19;1381;-64
2022/12/16 00:28:45;;;;;;;;;;;;;;;16.70;71.01;100810.66;7404399;19;1609;-64
2022/12/16 00:31:13;;;;;;;;;;;;;;;16.72;71.06;100833.75;7401950;19;1562;-64
2022/12/16 00:33:42;;;;;;;;;;;;;;;16.67;70.79;100816.25;7403902;19;948;-64
2022/12/16 00:36:11;;;;;;;;;;;;;;;16.65;70.90;100802.19;7402124;19;1856;-64
2022/12/16 00:38:39;;;;;;;;;;;;;;;16.74;70.56;100802.44;7400557;19;1422;-63
2022/12/16 00:41:08;;;;;;;;;;;;;;;16.61;70.92;100799.84;7401657;19;1288;-63
2022/12/16 00:43:39;;;;;;;;;;;;;;;16.68;70.84;100799.25;7402028;19;1507;-64
2022/12/16 00:46:07;;;;;;;;;;;;;;;17.28;69.26;100794.53;7401403;19;1546;-63
2022/12/16 00:48:35;;;;;;;;;;;;;;;17.98;66.99;100791.59;7402734;19;959;-63
2022/12/16 00:51:04;;;;;;;;;;;;;;;18.79;64.94;100797.22;7401773;19;1462;-63
2022/12/16 00:53:32;;;;;;;;;;;;;;;19.36;63.01;100795.78;7401964;19;1287;-64
2022/12/16 00:56:04;;;;;;;;;;;;;;;19.59;62.22;100784.81;7400698;19;1861;-64
2022/12/16 00:58:33;;;;;;;;;;;;;;;19.74;61.95;100774.56;7402321;19;1396;-64
2022/12/16 01:01:04;;;;;;;;;;;;;;;19.77;61.91;100772.41;7397269;19;1310;-64
2022/12/16 01:03:32;;;;;;;;;;;;;;;19.15;63.62;100776.25;7407659;19;1304;-64
2022/12/16 01:06:00;;;;;;;;;;;;;;;18.26;66.11;100763.34;7409169;19;1620;-64
2022/12/16 01:08:29;;;;;;;;;;;;;;;17.77;67.38;100754.09;7408868;19;1339;-64
2022/12/16 01:10:58;;;;;;;;;;;;;;;17.53;68.22;100778.34;7408857;19;1364;-63
2022/12/16 01:13:27;;;;;;;;;;;;;;;17.40;68.39;100771.31;7407966;19;1169;-63
2022/12/16 01:15:55;;;;;;;;;;;;;;;17.23;69.07;100750.44;7407022;19;1864;-63
2022/12/16 01:18:26;;;;;;;;;;;;;;;17.15;68.85;100753.78;7409575;19;1220;-63
2022/12/16 01:20:55;;;;;;;;;;;;;;;17.17;68.59;100758.97;7409589;19;1390;-63
2022/12/16 01:23:23;;;;;;;;;;;;;;;17.04;69.24;100762.63;7410412;19;1542;-63
2022/12/16 01:25:54;;;;;;;;;;;;;;;16.96;69.20;100757.06;7408649;19;1530;-63
2022/12/16 01:28:22;;;;;;;;;;;;;;;16.88;69.27;100764.84;7408547;19;1538;-63
2022/12/16 01:30:50;;;;;;;;;;;;;;;16.89;69.26;100767.38;7407717;19;1365;-63
2022/12/16 01:33:19;;;;;;;;;;;;;;;16.80;69.52;100772.56;7409900;19;1071;-63
2022/12/16 01:35:50;;;;;;;;;;;;;;;16.75;69.45;100777.41;7408246;19;1841;-63
2022/12/16 01:38:18;;;;;;;;;;;;;;;16.72;69.82;100783.00;7405302;19;1561;-63
2022/12/16 01:40:46;;;;;;;;;;;;;;;16.72;69.47;100789.19;7407706;19;1438;-63
2022/12/16 01:43:15;;;;;;;;;;;;;;;16.74;69.66;100781.06;7407980;19;1629;-63
2022/12/16 01:45:44;;;;;;;;;;;;;;;16.65;69.63;100778.16;7408036;19;1299;-63
2022/12/16 01:48:18;;;;;;;;;;;;;;;16.61;69.82;100779.38;7409856;19;1010;-63
2022/12/16 01:50:47;;;;;;;;;;;;;;;16.63;69.87;100784.56;7406741;19;1399;-63
2022/12/16 01:53:18;;;;;;;;;;;;;;;16.59;69.65;100773.28;7407538;19;1291;-63
2022/12/16 01:55:49;;;;;;;;;;;;;;;17.12;68.40;100771.88;7408017;19;1854;-63
2022/12/16 01:58:20;;;;;;;;;;;;;;;17.93;66.27;100772.44;7408124;19;1633;-63
2022/12/16 02:00:48;;;;;;;;;;;;;;;18.74;63.69;100767.28;7407789;19;1241;-63
2022/12/16 02:03:17;;;;;;;;;;;;;;;19.26;61.98;100763.56;7409123;19;1067;-63
2022/12/16 02:05:46;;;;;;;;;;;;;;;19.55;61.16;100778.03;7407033;19;1734;-63
2022/12/16 02:08:15;;;;;;;;;;;;;;;19.80;60.63;100765.94;7406950;19;1632;-63
2022/12/16 02:11:04;;;;;;;;;;;;;;;19.75;60.74;100744.03;7407031;19;1427;-63
2022/12/16 02:13:40;;;;;;;;;;;;;;;19.13;62.30;100756.78;7404620;19;1523;-63
2022/12/16 02:16:15;;;;;;;;;;;;;;;18.26;64.66;100753.53;7403606;19;1840;-63
2022/12/16 02:18:46;;;;;;;;;;;;;;;17.84;65.84;100744.59;7407475;19;943;-63
2022/12/16 02:21:21;;;;;;;;;;;;;;;17.57;66.39;100731.69;7407806;19;1675;-63
2022/12/16 02:24:04;;;;;;;;;;;;;;;17.40;67.08;100712.50;7408432;19;1494;-63
2022/12/16 02:26:43;;;;;;;;;;;;;;;17.24;67.12;100701.41;7407565;19;1358;-63
2022/12/16 02:29:31;;;;;;;;;;;;;;;17.20;67.40;100699.94;7403175;19;1731;-63
2022/12/16 02:32:09;;;;;;;;;;;;;;;17.12;67.56;100708.59;7407262;19;1629;-63
2022/12/16 02:34:43;;;;;;;;;;;;;;;16.94;68.01;100702.06;7403152;19;1674;-63
2022/12/16 02:37:16;;;;;;;;;;;;;;;16.94;67.93;100704.75;7405279;19;1845;-63
2022/12/16 02:39:48;;;;;;;;;;;;;;;16.87;68.33;100709.69;7407653;19;1503;-63
2022/12/16 02:42:18;;;;;;;;;;;;;;;16.84;68.12;100723.31;7406915;19;1068;-63
2022/12/16 02:44:52;;;;;;;;;;;;;;;16.84;68.27;100724.16;7406593;19;1236;-63
2022/12/16 02:47:23;;;;;;;;;;;;;;;16.72;68.27;100724.28;7406891;19;1521;-63
2022/12/16 02:49:53;;;;;;;;;;;;;;;16.75;68.32;100721.34;7404828;19;1301;-63
2022/12/16 02:52:23;;;;;;;;;;;;;;;16.75;68.21;100713.31;7404043;19;1531;-63
2022/12/16 02:54:54;;;;;;;;;;;;;;;16.64;68.39;100699.00;7405257;19;1647;-63
2022/12/16 02:57:41;;;;;;;;;;;;;;;16.64;68.35;100691.00;7405522;19;1861;-63
2022/12/16 03:00:11;;;;;;;;;;;;;;;16.64;68.26;100703.50;7404466;19;1317;-63
2022/12/16 03:02:47;;;;;;;;;;;;;;;16.60;68.42;100692.22;7401142;19;1428;-63
2022/12/16 03:05:19;;;;;;;;;;;;;;;16.94;67.63;100688.72;7403590;19;1760;-63
2022/12/16 03:07:49;;;;;;;;;;;;;;;17.69;65.14;100674.50;7403394;19;1431;-63
2022/12/16 03:10:19;;;;;;;;;;;;;;;18.52;63.04;100698.69;7406263;19;1600;-63
2022/12/16 03:12:48;;;;;;;;;;;;;;;19.22;60.98;100671.00;7405990;19;1530;-63
2022/12/16 03:15:19;;;;;;;;;;;;;;;19.42;60.63;100676.41;7404407;19;1434;-63
2022/12/16 03:17:52;;;;;;;;;;;;;;;19.68;59.64;100688.25;7405347;19;1863;-63
2022/12/16 03:20:23;;;;;;;;;;;;;;;19.78;59.00;100661.44;7403249;19;1457;-63
2022/12/16 03:22:52;;;;;;;;;;;;;;;19.84;59.45;100682.31;7404744;19;1285;-63
2022/12/16 03:25:22;;;;;;;;;;;;;;;19.90;59.59;100715.81;7404759;19;1525;-63
2022/12/16 03:27:55;;;;;;;;;;;;;;;19.66;60.45;100687.53;7405609;19;1534;-63
2022/12/16 03:30:27;;;;;;;;;;;;;;;19.46;61.11;100686.69;7405358;19;1573;-63
2022/12/16 03:33:01;;;;;;;;;;;;;;;19.10;61.87;100687.34;7405728;19;1533;-63
2022/12/16 03:35:32;;;;;;;;;;;;;;;18.31;63.71;100702.25;7402654;19;1565;-63
2022/12/16 03:38:02;;;;;;;;;;;;;;;17.77;65.17;100682.72;7402397;19;1841;-64
2022/12/16 03:40:31;;;;;;;;;;;;;;;17.56;65.67;100676.50;7404566;19;1378;-63
2022/12/16 03:43:00;;;;;;;;;;;;;;;17.36;66.05;100689.69;7405913;19;1628;-63
2022/12/16 03:45:30;;;;;;;;;;;;;;;17.35;66.43;100671.97;7404310;19;1574;-63
2022/12/16 03:48:01;;;;;;;;;;;;;;;17.28;66.25;100697.50;7404433;19;1307;-63
2022/12/16 03:50:31;;;;;;;;;;;;;;;17.17;66.41;100698.38;7403159;19;1595;-63
2022/12/16 03:52:59;;;;;;;;;;;;;;;17.07;66.46;100703.63;7402546;19;1407;-63
2022/12/16 03:55:28;;;;;;;;;;;;;;;17.02;66.69;100697.78;7404121;19;1605;-63
2022/12/16 03:57:57;;;;;;;;;;;;;;;16.92;67.38;100712.88;7403816;19;1848;-63
2022/12/16 04:00:25;;;;;;;;;;;;;;;16.84;67.89;100709.97;7405016;19;1292;-63
2022/12/16 04:02:54;;;;;;;;;;;;;;;16.75;68.20;100700.84;7404057;19;1668;-63
2022/12/16 04:05:24;;;;;;;;;;;;;;;16.69;68.78;100699.50;7402327;19;1447;-63
2022/12/16 04:07:53;;;;;;;;;;;;;;;16.66;69.12;100704.25;7402561;19;1564;-63
2022/12/16 04:24:17;;;;;;;;;;;;;;;16.60;69.36;100696.72;7403666;19;1561;-63
2022/12/16 04:29:21;;;;;;;;;;;;;;;17.87;66.14;100699.72;7399999;19;1365;-64
2022/12/16 04:31:50;;;;;;;;;;;;;;;18.22;65.46;100684.28;7403324;19;1577;-63
2022/12/16 04:34:24;;;;;;;;;;;;;;;18.44;65.24;100677.94;7403849;19;1343;-64
